Time;durP1;ratioP1;P1;durP2;ratioP2;P2;SDS_P1;SDS_P2;PMS_P1;PMS_P2;Temp;Humidity;BMP_temperature;BMP_pressure;BME280_temperature;BME280_humidity;BME280_pressure;Samples;Min_cycle;Max_cycle;Signal;HPM_P1;HPM_P2
2022/12/12 00:00:53;;;;;;;24.53;11.90;;;-1.50;99.90;;;;;;5022150;28;20219;-62
2022/12/12 00:03:20;;;;;;;24.70;12.13;;;-1.50;99.90;;;;;;5034140;28;20967;-62
2022/12/12 00:05:47;;;;;;;23.57;11.83;;;-1.60;99.90;;;;;;5022094;28;20210;-62
2022/12/12 00:08:14;;;;;;;25.23;11.63;;;-1.60;99.90;;;;;;5013659;28;21167;-62
2022/12/12 00:10:40;;;;;;;29.00;13.17;;;-1.60;99.90;;;;;;5036088;28;20206;-63
2022/12/12 00:13:07;;;;;;;31.97;12.73;;;-1.60;99.90;;;;;;5033763;28;20228;-62
2022/12/12 00:15:34;;;;;;;25.53;12.83;;;-1.50;99.90;;;;;;5031355;28;20217;-62
2022/12/12 00:18:02;;;;;;;24.53;10.73;;;-1.60;99.90;;;;;;5042740;28;20237;-62
2022/12/12 00:20:29;;;;;;;30.27;12.30;;;-1.60;99.90;;;;;;5036912;28;20210;-63
2022/12/12 00:22:56;;;;;;;26.57;11.17;;;-1.60;99.90;;;;;;5010664;28;20201;-62
2022/12/12 00:25:23;;;;;;;26.43;12.20;;;-1.70;99.90;;;;;;5030372;28;20679;-62
2022/12/12 00:27:49;;;;;;;35.23;13.60;;;-1.80;99.90;;;;;;5021491;28;20213;-62
2022/12/12 00:30:16;;;;;;;29.63;11.70;;;-1.80;99.90;;;;;;5026345;28;20204;-62
2022/12/12 00:32:43;;;;;;;28.63;12.47;;;-1.90;99.90;;;;;;5046151;28;20255;-62
2022/12/12 00:35:11;;;;;;;30.50;11.60;;;-1.80;99.90;;;;;;5024514;28;20212;-62
2022/12/12 00:37:38;;;;;;;23.87;10.93;;;-1.80;99.90;;;;;;5012161;28;20213;-63
2022/12/12 00:40:06;;;;;;;26.87;12.40;;;-1.80;99.90;;;;;;5035100;28;20749;-62
2022/12/12 00:42:33;;;;;;;24.00;10.87;;;-1.90;99.90;;;;;;5029714;28;20698;-62
2022/12/12 00:45:00;;;;;;;20.83;10.70;;;-1.90;99.90;;;;;;5038840;28;20211;-62
2022/12/12 00:47:27;;;;;;;23.97;10.33;;;-1.90;99.90;;;;;;5031363;28;20690;-62
2022/12/12 00:49:53;;;;;;;25.90;10.80;;;-1.90;99.90;;;;;;5032482;28;20197;-62
2022/12/12 00:52:21;;;;;;;25.60;11.23;;;-1.90;99.90;;;;;;5039187;28;20225;-63
2022/12/12 00:54:48;;;;;;;27.50;11.63;;;-1.90;99.90;;;;;;5016041;28;20208;-62
2022/12/12 00:57:15;;;;;;;29.80;13.00;;;-2.00;99.90;;;;;;5042138;28;20224;-62
2022/12/12 00:59:42;;;;;;;29.83;12.30;;;-2.00;99.90;;;;;;5022701;28;20200;-62
2022/12/12 01:02:08;;;;;;;22.47;9.87;;;-2.00;99.90;;;;;;5020053;28;20924;-63
2022/12/12 01:04:35;;;;;;;28.23;11.07;;;-2.00;99.90;;;;;;5040747;28;20835;-62
2022/12/12 01:07:02;;;;;;;24.70;10.70;;;-1.90;99.90;;;;;;5024621;28;20204;-62
2022/12/12 01:09:30;;;;;;;23.17;10.80;;;-2.00;99.90;;;;;;5004039;28;20635;-62
2022/12/12 01:11:57;;;;;;;30.03;12.23;;;-2.00;99.90;;;;;;5027938;28;20201;-62
2022/12/12 01:14:24;;;;;;;22.40;10.53;;;-2.00;99.90;;;;;;5028284;28;20204;-63
2022/12/12 01:16:50;;;;;;;26.30;11.80;;;-2.10;99.90;;;;;;5024180;28;20205;-62
2022/12/12 01:19:17;;;;;;;27.90;11.67;;;-2.00;99.90;;;;;;5038335;28;20255;-62
2022/12/12 01:21:44;;;;;;;26.87;12.73;;;-2.00;99.90;;;;;;5031010;28;20207;-62
2022/12/12 01:24:11;;;;;;;25.57;10.90;;;-2.10;99.90;;;;;;5001072;28;20549;-62
2022/12/12 01:26:39;;;;;;;27.50;11.93;;;-2.20;99.90;;;;;;5030425;28;20208;-62
2022/12/12 01:29:06;;;;;;;29.20;12.47;;;-2.10;99.90;;;;;;5023203;28;22019;-63
2022/12/12 01:31:32;;;;;;;28.20;10.87;;;-2.30;99.90;;;;;;5024886;28;20212;-61
2022/12/12 01:33:59;;;;;;;23.70;10.80;;;-2.20;99.90;;;;;;5037110;28;20212;-60
2022/12/12 01:36:26;;;;;;;25.40;10.53;;;-2.20;99.90;;;;;;5041016;28;20197;-60
2022/12/12 01:38:55;;;;;;;24.40;11.03;;;-2.20;99.90;;;;;;5009290;28;20225;-63
2022/12/12 01:41:23;;;;;;;21.93;10.57;;;-2.20;99.90;;;;;;5039731;28;20208;-62
2022/12/12 01:43:52;;;;;;;26.00;11.30;;;-2.30;99.90;;;;;;5037023;28;20871;-63
2022/12/12 01:46:39;;;;;;;31.27;11.60;;;-2.20;99.90;;;;;;5017073;28;20206;-63
2022/12/12 01:49:23;;;;;;;25.63;11.03;;;-2.20;99.90;;;;;;5044644;28;20223;-63
2022/12/12 01:51:52;;;;;;;26.40;11.00;;;-2.30;99.90;;;;;;5043923;28;20204;-63
2022/12/12 01:54:23;;;;;;;22.77;11.20;;;-2.30;99.90;;;;;;5000993;28;20208;-63
2022/12/12 01:56:50;;;;;;;32.33;11.13;;;-2.30;99.90;;;;;;5043040;28;20207;-62
2022/12/12 01:59:23;;;;;;;32.47;11.50;;;-2.30;99.90;;;;;;5021606;28;20232;-62
2022/12/12 02:01:52;;;;;;;26.70;12.30;;;-2.40;99.90;;;;;;5036141;28;20209;-62
2022/12/12 02:04:20;;;;;;;28.27;11.80;;;-2.60;99.90;;;;;;5043757;28;20231;-62
2022/12/12 02:06:50;;;;;;;28.37;12.20;;;-2.50;99.90;;;;;;5042678;28;20201;-62
2022/12/12 02:09:20;;;;;;;25.53;11.20;;;-2.50;99.90;;;;;;5013100;28;20212;-63
2022/12/12 02:11:49;;;;;;;30.63;12.37;;;-2.30;99.90;;;;;;5034206;28;20213;-60
2022/12/12 02:14:22;;;;;;;26.73;12.37;;;-2.30;99.90;;;;;;5040910;28;20938;-61
2022/12/12 02:17:15;;;;;;;29.63;12.77;;;-2.30;99.90;;;;;;5027418;28;20201;-61
2022/12/12 02:20:16;;;;;;;24.83;11.90;;;-2.40;99.90;;;;;;5044548;28;20625;-61
2022/12/12 02:23:03;;;;;;;25.53;12.20;;;-2.50;99.90;;;;;;5041304;28;20566;-61
2022/12/12 02:25:59;;;;;;;25.50;12.00;;;-2.50;99.90;;;;;;5015092;28;20197;-61
2022/12/12 02:28:45;;;;;;;28.37;10.50;;;-2.40;99.90;;;;;;5034741;28;20213;-61
2022/12/12 02:31:19;;;;;;;30.80;12.77;;;-2.40;99.90;;;;;;5032083;28;20751;-61
2022/12/12 02:33:55;;;;;;;36.30;11.53;;;-2.40;99.90;;;;;;5032873;28;20203;-61
2022/12/12 02:36:31;;;;;;;34.20;12.57;;;-2.30;99.90;;;;;;5041064;28;20210;-61
2022/12/12 02:39:08;;;;;;;23.57;11.23;;;-2.40;99.90;;;;;;5038952;28;20239;-61
2022/12/12 02:41:39;;;;;;;24.47;11.93;;;-2.50;99.90;;;;;;5016530;28;21055;-61
2022/12/12 02:44:14;;;;;;;31.00;12.57;;;-2.40;99.90;;;;;;5035742;28;20575;-61
2022/12/12 02:46:48;;;;;;;27.37;11.17;;;-2.50;99.90;;;;;;5021692;28;20920;-62
2022/12/12 02:49:22;;;;;;;31.43;12.93;;;-2.50;99.90;;;;;;5030972;28;20220;-61
2022/12/12 02:51:52;;;;;;;26.40;12.40;;;-2.50;99.90;;;;;;5038837;28;20709;-61
2022/12/12 02:54:21;;;;;;;32.87;12.23;;;-2.50;99.90;;;;;;5040630;28;20207;-61
2022/12/12 02:56:55;;;;;;;23.40;11.47;;;-2.50;99.90;;;;;;5011117;28;20211;-61
2022/12/12 02:59:25;;;;;;;26.73;11.57;;;-2.60;99.90;;;;;;5044555;28;20232;-61
2022/12/12 03:02:42;;;;;;;24.03;11.10;;;-2.80;99.90;;;;;;5014898;28;20201;-61
2022/12/12 03:08:33;;;;;;;30.60;11.80;;;-2.60;99.90;;;;;;5041249;28;20587;-61
2022/12/12 03:11:06;;;;;;;27.13;11.53;;;-2.70;99.90;;;;;;5010392;28;20217;-62
2022/12/12 03:13:43;;;;;;;24.40;11.47;;;-2.70;99.90;;;;;;5041088;28;20259;-61
2022/12/12 03:16:24;;;;;;;24.00;11.30;;;-2.60;99.90;;;;;;5036571;28;20205;-61
2022/12/12 03:18:58;;;;;;;25.47;11.20;;;-2.70;99.90;;;;;;5009257;28;20378;-61
2022/12/12 03:21:29;;;;;;;26.90;11.30;;;-2.80;99.90;;;;;;5039924;28;20223;-61
2022/12/12 03:24:03;;;;;;;25.67;11.90;;;-2.80;99.90;;;;;;5031482;28;20683;-61
2022/12/12 03:26:36;;;;;;;25.73;10.37;;;-2.80;99.90;;;;;;5029939;28;20209;-61
2022/12/12 03:29:07;;;;;;;25.43;10.07;;;-2.90;99.90;;;;;;5036340;28;20207;-61
2022/12/12 03:31:38;;;;;;;29.13;12.13;;;-2.90;99.90;;;;;;5026672;28;20258;-61
2022/12/12 03:34:10;;;;;;;32.73;11.73;;;-3.00;99.90;;;;;;5030676;28;20215;-61
2022/12/12 03:36:42;;;;;;;25.03;12.03;;;-3.00;99.90;;;;;;5026592;28;20200;-61
2022/12/12 03:39:13;;;;;;;24.93;12.97;;;-3.00;99.90;;;;;;5042635;28;20225;-61
2022/12/12 03:41:47;;;;;;;25.00;12.33;;;-3.00;99.90;;;;;;4992890;28;20704;-62
2022/12/12 03:44:18;;;;;;;28.50;11.73;;;-3.00;99.90;;;;;;5040417;28;20199;-61
2022/12/12 03:46:50;;;;;;;25.93;11.60;;;-2.90;99.90;;;;;;5019000;28;20198;-61
2022/12/12 03:49:23;;;;;;;27.67;11.93;;;-2.90;99.90;;;;;;5031062;28;20224;-61
2022/12/12 03:51:56;;;;;;;26.70;11.60;;;-2.90;99.90;;;;;;5019510;28;20204;-61
2022/12/12 03:54:28;;;;;;;29.37;12.03;;;-2.90;99.90;;;;;;5041921;28;20197;-61
2022/12/12 03:56:58;;;;;;;24.33;11.13;;;-2.80;99.90;;;;;;5029929;28;20782;-61
2022/12/12 03:59:30;;;;;;;23.20;11.07;;;-2.90;99.90;;;;;;5016928;28;20232;-60
2022/12/12 04:02:02;;;;;;;23.87;10.73;;;-2.90;99.90;;;;;;5037745;28;21352;-61
2022/12/12 04:04:36;;;;;;;32.80;12.90;;;-2.90;99.90;;;;;;5029373;28;20208;-61
2022/12/12 04:07:09;;;;;;;30.43;12.83;;;-3.00;99.90;;;;;;5036387;28;20255;-61
2022/12/12 04:15:24;;;;;;;24.87;10.73;;;-3.10;99.90;;;;;;5042978;28;20764;-61
2022/12/12 04:18:02;;;;;;;25.70;11.70;;;-3.20;99.90;;;;;;5037954;28;20225;-61
2022/12/12 04:23:32;;;;;;;25.73;10.33;;;-3.20;99.90;;;;;;5032914;28;20211;-61
2022/12/12 04:29:01;;;;;;;30.93;11.37;;;-3.10;99.90;;;;;;4983686;28;20728;-61
2022/12/12 04:31:32;;;;;;;24.77;12.13;;;-3.20;99.90;;;;;;5041798;28;20221;-61
2022/12/12 04:34:05;;;;;;;27.57;12.33;;;-3.20;99.90;;;;;;5017205;28;20230;-61
2022/12/12 04:36:34;;;;;;;29.50;11.83;;;-3.20;99.90;;;;;;5032741;28;20576;-61
2022/12/12 04:39:03;;;;;;;27.70;11.87;;;-3.30;99.90;;;;;;5032133;28;23917;-61
2022/12/12 04:41:34;;;;;;;26.57;11.80;;;-3.30;99.90;;;;;;5036117;28;20671;-61
2022/12/12 04:44:03;;;;;;;23.40;10.70;;;-3.30;99.90;;;;;;5035057;28;20201;-61
2022/12/12 04:46:33;;;;;;;25.60;11.93;;;-3.20;99.90;;;;;;5007350;28;20607;-61
2022/12/12 04:49:04;;;;;;;25.00;12.60;;;-3.10;99.90;;;;;;5024182;28;21276;-61
2022/12/12 04:51:34;;;;;;;26.83;12.37;;;-3.10;99.90;;;;;;5002910;28;20314;-61
2022/12/12 04:54:08;;;;;;;24.27;11.03;;;-3.20;99.90;;;;;;5016111;28;20222;-61
2022/12/12 04:56:37;;;;;;;25.27;12.07;;;-3.30;99.90;;;;;;5029395;28;20205;-61
2022/12/12 04:59:06;;;;;;;25.30;11.77;;;-3.20;99.90;;;;;;5040999;28;20228;-61
2022/12/12 05:01:39;;;;;;;27.17;12.70;;;-3.20;99.90;;;;;;5001611;28;20205;-60
2022/12/12 05:04:13;;;;;;;29.40;12.93;;;-3.20;99.90;;;;;;5028153;28;20227;-61
2022/12/12 05:06:46;;;;;;;27.83;11.43;;;-3.20;99.90;;;;;;5015195;28;20211;-61
2022/12/12 05:09:15;;;;;;;32.27;12.87;;;-3.30;99.90;;;;;;5034861;28;20851;-61
2022/12/12 05:11:42;;;;;;;27.87;13.10;;;-3.00;99.90;;;;;;5024171;28;20211;-61
2022/12/12 05:14:09;;;;;;;27.57;11.73;;;-3.40;99.90;;;;;;5022829;28;20220;-61
2022/12/12 05:16:41;;;;;;;25.77;11.80;;;-3.40;99.90;;;;;;5003673;28;20215;-62
2022/12/12 05:19:08;;;;;;;23.20;11.77;;;-3.40;99.90;;;;;;5035589;28;20246;-61
2022/12/12 05:21:35;;;;;;;32.63;13.33;;;-3.40;99.90;;;;;;5009792;28;20310;-62
2022/12/12 05:24:03;;;;;;;31.73;13.43;;;-3.30;99.90;;;;;;5034148;28;20356;-62
2022/12/12 05:26:32;;;;;;;22.67;11.60;;;-3.30;99.90;;;;;;4994730;28;20232;-63
2022/12/12 05:28:59;;;;;;;31.37;12.90;;;-3.20;99.90;;;;;;5037348;28;20238;-62
2022/12/12 05:31:26;;;;;;;26.60;12.60;;;-3.40;99.90;;;;;;5005895;28;22609;-60
2022/12/12 05:33:53;;;;;;;30.70;12.20;;;-3.40;99.90;;;;;;5032994;28;20199;-62
2022/12/12 05:36:20;;;;;;;28.33;12.80;;;-3.40;99.90;;;;;;5020798;28;20239;-62
2022/12/12 05:38:47;;;;;;;28.80;12.27;;;-3.40;99.90;;;;;;5024188;28;20228;-62
2022/12/12 05:41:15;;;;;;;40.03;13.70;;;-3.50;99.90;;;;;;5013474;28;20229;-62
2022/12/12 05:43:42;;;;;;;28.63;12.87;;;-3.50;99.90;;;;;;5023572;28;20254;-62
2022/12/12 05:46:09;;;;;;;30.43;13.93;;;-3.60;99.90;;;;;;5029930;28;20223;-62
2022/12/12 05:48:35;;;;;;;29.33;11.63;;;-3.70;99.90;;;;;;5003294;28;20248;-62
2022/12/12 05:51:03;;;;;;;25.07;10.60;;;-3.70;99.90;;;;;;5034402;28;20227;-62
2022/12/12 05:53:30;;;;;;;33.17;14.53;;;-3.50;99.90;;;;;;5029048;28;20207;-62
2022/12/12 05:55:57;;;;;;;30.90;15.50;;;-3.40;99.90;;;;;;5009588;28;20226;-62
2022/12/12 05:58:25;;;;;;;31.67;13.30;;;-3.40;99.90;;;;;;5026561;28;20211;-62
2022/12/12 06:00:52;;;;;;;29.13;12.50;;;-3.40;99.90;;;;;;5031797;28;20232;-61
2022/12/12 06:03:19;;;;;;;26.07;12.90;;;-3.40;99.90;;;;;;4986425;28;20602;-62
2022/12/12 06:05:46;;;;;;;26.73;10.90;;;-3.40;99.90;;;;;;5019385;28;20234;-62
2022/12/12 06:08:13;;;;;;;33.07;13.33;;;-3.40;99.90;;;;;;4996558;28;20225;-61
2022/12/12 06:10:40;;;;;;;26.60;12.63;;;-3.50;99.90;;;;;;5008871;28;20720;-61
2022/12/12 06:13:07;;;;;;;27.03;12.17;;;-3.50;99.90;;;;;;4985442;28;20234;-62
2022/12/12 06:15:40;;;;;;;24.63;11.53;;;-3.50;99.90;;;;;;5011570;28;20227;-62
2022/12/12 06:18:07;;;;;;;29.67;12.50;;;-3.50;99.90;;;;;;5017751;22;20257;-62
2022/12/12 06:20:33;;;;;;;39.47;12.13;;;-3.40;99.90;;;;;;4992871;28;20228;-62
2022/12/12 06:23:00;;;;;;;28.70;12.30;;;-3.40;99.90;;;;;;4979030;28;20232;-62
2022/12/12 06:25:27;;;;;;;32.73;13.00;;;-3.50;99.90;;;;;;4976226;28;20299;-62
2022/12/12 06:27:54;;;;;;;28.93;12.23;;;-3.50;99.90;;;;;;4985805;28;20486;-62
2022/12/12 06:30:21;;;;;;;29.27;12.97;;;-3.60;99.90;;;;;;4977509;28;21141;-62
2022/12/12 06:32:49;;;;;;;26.30;11.83;;;-3.60;99.90;;;;;;4991768;28;20230;-62
2022/12/12 06:35:16;;;;;;;22.03;11.50;;;-3.60;99.90;;;;;;4964597;28;20339;-62
2022/12/12 06:37:43;;;;;;;27.07;11.40;;;-3.70;99.90;;;;;;5004438;28;20380;-62
2022/12/12 06:40:11;;;;;;;31.10;12.77;;;-3.70;99.90;;;;;;4997814;28;20250;-62
2022/12/12 06:42:38;;;;;;;27.93;11.30;;;-3.70;99.90;;;;;;4990381;28;20230;-62
2022/12/12 06:45:05;;;;;;;26.37;12.10;;;-3.70;99.90;;;;;;4991544;28;20216;-62
2022/12/12 06:47:32;;;;;;;28.37;11.47;;;-3.60;99.90;;;;;;4995562;28;20475;-62
2022/12/12 06:50:00;;;;;;;30.63;11.37;;;-3.70;99.90;;;;;;4986009;28;20199;-62
2022/12/12 06:52:27;;;;;;;28.30;11.57;;;-3.70;99.90;;;;;;5001227;28;20204;-62
2022/12/12 06:54:54;;;;;;;24.87;10.83;;;-3.80;99.90;;;;;;4990175;28;20216;-62
2022/12/12 06:57:21;;;;;;;20.57;11.93;;;-3.70;99.90;;;;;;4986845;28;20499;-62
2022/12/12 06:59:50;;;;;;;33.27;12.83;;;-3.80;99.90;;;;;;5001694;28;21006;-62
2022/12/12 07:02:18;;;;;;;28.97;12.73;;;-3.80;99.90;;;;;;4985076;28;20203;-62
2022/12/12 07:04:44;;;;;;;30.30;11.23;;;-3.90;99.90;;;;;;4984453;28;21250;-62
2022/12/12 07:07:13;;;;;;;23.93;11.03;;;-3.80;99.90;;;;;;4944825;28;20228;-61
2022/12/12 07:09:39;;;;;;;29.50;12.00;;;-3.80;99.90;;;;;;4980494;28;20227;-62
2022/12/12 07:12:06;;;;;;;29.57;12.03;;;-4.00;99.90;;;;;;4990722;28;20225;-62
2022/12/12 07:14:33;;;;;;;25.27;11.33;;;-4.00;99.90;;;;;;4995927;28;21392;-62
2022/12/12 07:17:00;;;;;;;25.20;11.07;;;-4.00;99.90;;;;;;4991022;28;20205;-62
2022/12/12 07:19:27;;;;;;;21.83;10.27;;;-3.90;99.90;;;;;;4989265;28;20248;-62
2022/12/12 07:21:53;;;;;;;24.33;10.67;;;-3.90;99.90;;;;;;4967709;28;21065;-62
2022/12/12 07:24:23;;;;;;;31.70;13.17;;;-3.90;99.90;;;;;;4999907;28;20223;-62
2022/12/12 07:26:49;;;;;;;31.83;12.90;;;-3.80;99.90;;;;;;4995704;28;20821;-62
2022/12/12 07:29:16;;;;;;;35.27;13.00;;;-3.80;99.90;;;;;;4996007;28;21012;-62
2022/12/12 07:31:43;;;;;;;27.87;12.00;;;-3.70;99.90;;;;;;4978196;28;20230;-62
2022/12/12 07:34:10;;;;;;;29.60;13.70;;;-3.80;99.90;;;;;;5002205;28;20200;-62
2022/12/12 07:36:36;;;;;;;28.97;12.77;;;-3.60;99.90;;;;;;4994138;28;20595;-61
2022/12/12 07:39:04;;;;;;;29.93;11.53;;;-3.70;99.90;;;;;;4975418;28;20223;-61
2022/12/12 07:41:32;;;;;;;34.40;12.70;;;-3.70;99.90;;;;;;4975945;28;20247;-61
2022/12/12 07:43:59;;;;;;;33.67;13.73;;;-3.70;99.90;;;;;;4990460;28;20235;-62
2022/12/12 07:46:26;;;;;;;30.77;11.77;;;-3.70;99.90;;;;;;4990957;28;20225;-61
2022/12/12 07:48:53;;;;;;;25.10;13.00;;;-3.70;99.90;;;;;;4998483;28;20223;-62
2022/12/12 07:51:21;;;;;;;28.97;12.33;;;-3.80;99.90;;;;;;5001280;28;20276;-62
2022/12/12 07:53:48;;;;;;;28.23;11.77;;;-3.70;99.90;;;;;;4974583;28;20646;-62
2022/12/12 07:56:16;;;;;;;27.37;11.23;;;-3.80;99.90;;;;;;4992335;28;20256;-62
2022/12/12 07:58:44;;;;;;;26.00;12.23;;;-3.90;99.90;;;;;;4991424;28;20216;-62
2022/12/12 08:01:14;;;;;;;26.30;11.77;;;-3.80;99.90;;;;;;4978857;28;20223;-62
2022/12/12 08:03:41;;;;;;;32.67;13.57;;;-3.80;99.90;;;;;;4984389;28;20228;-62
2022/12/12 08:06:08;;;;;;;26.87;12.13;;;-3.80;99.90;;;;;;5009309;28;20544;-62
2022/12/12 08:08:35;;;;;;;26.43;10.97;;;-3.90;99.90;;;;;;4968221;28;20782;-63
2022/12/12 08:11:06;;;;;;;26.33;12.67;;;-3.90;99.90;;;;;;4997527;28;20220;-61
2022/12/12 08:13:35;;;;;;;24.60;12.17;;;-3.90;99.90;;;;;;4985773;28;20212;-61
2022/12/12 08:16:05;;;;;;;32.47;13.17;;;-3.70;99.90;;;;;;4993163;28;20784;-61
2022/12/12 08:18:32;;;;;;;26.47;11.57;;;-3.70;99.90;;;;;;4994141;28;20243;-61
2022/12/12 08:20:59;;;;;;;24.27;12.57;;;-3.70;99.90;;;;;;5006955;28;20232;-61
2022/12/12 08:23:26;;;;;;;28.53;11.60;;;-3.60;99.90;;;;;;4985972;28;20202;-63
2022/12/12 08:25:53;;;;;;;31.30;12.53;;;-3.60;99.90;;;;;;4991987;28;20421;-62
2022/12/12 08:28:20;;;;;;;32.17;13.57;;;-3.60;99.90;;;;;;4986769;28;20205;-62
2022/12/12 08:30:49;;;;;;;32.23;14.53;;;-3.60;99.90;;;;;;4991526;28;20343;-61
2022/12/12 08:33:18;;;;;;;29.83;12.93;;;-3.60;99.90;;;;;;4993971;28;20288;-62
2022/12/12 08:35:45;;;;;;;27.80;13.00;;;-3.60;99.90;;;;;;4991889;28;20212;-62
2022/12/12 08:38:12;;;;;;;28.23;12.17;;;-3.40;99.90;;;;;;5007655;28;20213;-62
2022/12/12 08:40:40;;;;;;;33.67;14.57;;;-3.30;99.90;;;;;;4972780;28;20639;-62
2022/12/12 08:43:07;;;;;;;24.43;11.60;;;-3.30;99.90;;;;;;5003534;28;20663;-61
2022/12/12 08:45:34;;;;;;;28.53;13.67;;;-3.20;99.90;;;;;;4971501;28;20214;-62
2022/12/12 08:48:00;;;;;;;30.90;14.77;;;-3.10;99.90;;;;;;4980681;28;20236;-62
2022/12/12 08:50:29;;;;;;;31.03;13.67;;;-3.20;99.90;;;;;;4989271;28;21288;-62
2022/12/12 08:52:56;;;;;;;32.47;14.03;;;-3.10;99.90;;;;;;5003236;28;20221;-62
2022/12/12 08:55:22;;;;;;;30.40;14.20;;;-3.20;99.90;;;;;;4968512;28;20202;-62
2022/12/12 08:57:49;;;;;;;31.67;14.73;;;-3.10;99.90;;;;;;5000808;28;22047;-62
2022/12/12 09:00:17;;;;;;;30.73;14.20;;;-3.00;99.90;;;;;;4990440;28;20228;-62
2022/12/12 09:02:44;;;;;;;29.80;14.73;;;-2.90;99.90;;;;;;4992907;28;20416;-61
2022/12/12 09:05:11;;;;;;;29.53;13.77;;;-2.80;99.90;;;;;;4988398;28;20236;-61
2022/12/12 09:07:39;;;;;;;42.10;15.97;;;-2.90;99.90;;;;;;4989900;28;20209;-63
2022/12/12 09:10:07;;;;;;;31.37;15.20;;;-2.80;99.90;;;;;;4978429;28;20218;-62
2022/12/12 09:12:34;;;;;;;33.30;14.60;;;-2.80;99.90;;;;;;4997739;28;20213;-62
2022/12/12 09:15:01;;;;;;;34.40;14.53;;;-2.80;99.90;;;;;;4991453;28;20210;-62
2022/12/12 09:17:28;;;;;;;31.07;13.77;;;-2.70;99.90;;;;;;4990979;28;20234;-62
2022/12/12 09:19:55;;;;;;;30.37;13.27;;;-2.70;99.90;;;;;;4987500;28;20206;-62
2022/12/12 09:22:21;;;;;;;36.33;13.80;;;-2.70;99.90;;;;;;4981240;28;20228;-62
2022/12/12 09:24:49;;;;;;;29.40;15.17;;;-2.60;99.90;;;;;;4976319;28;20206;-62
2022/12/12 09:27:16;;;;;;;31.00;14.73;;;-2.60;99.90;;;;;;5002300;28;20218;-61
2022/12/12 09:29:43;;;;;;;35.13;15.57;;;-2.60;99.90;;;;;;5000997;28;20712;-62
2022/12/12 09:32:10;;;;;;;33.60;15.23;;;-2.60;99.90;;;;;;4984264;28;20221;-62
2022/12/12 09:34:37;;;;;;;30.30;14.77;;;-2.50;99.90;;;;;;4984211;28;23889;-62
2022/12/12 09:37:04;;;;;;;34.17;15.17;;;-2.50;99.90;;;;;;4985003;28;20255;-62
2022/12/12 09:39:31;;;;;;;32.37;15.63;;;-2.40;99.90;;;;;;4999184;28;20268;-62
2022/12/12 09:42:09;;;;;;;31.00;15.30;;;-2.40;99.90;;;;;;4977842;28;20648;-62
2022/12/12 09:44:36;;;;;;;33.70;14.37;;;-2.30;99.90;;;;;;5000675;28;20226;-61
2022/12/12 09:47:09;;;;;;;30.50;14.80;;;-2.30;99.90;;;;;;4984418;28;20226;-62
2022/12/12 09:49:45;;;;;;;36.13;15.67;;;-2.20;99.90;;;;;;4975351;28;20226;-62
2022/12/12 09:52:13;;;;;;;32.17;15.57;;;-2.10;99.90;;;;;;5004355;28;20205;-62
2022/12/12 09:54:40;;;;;;;33.83;13.73;;;-2.20;99.90;;;;;;4978743;28;20230;-62
2022/12/12 09:57:23;;;;;;;32.37;15.90;;;-2.10;99.90;;;;;;4975221;28;20698;-62
2022/12/12 09:59:57;;;;;;;34.50;14.03;;;-2.00;99.90;;;;;;4994113;28;20572;-62
2022/12/12 10:02:48;;;;;;;32.17;15.97;;;-2.00;99.90;;;;;;4987405;28;20916;-62
2022/12/12 10:05:25;;;;;;;33.23;14.70;;;-2.00;99.90;;;;;;5003512;28;20218;-62
2022/12/12 10:07:59;;;;;;;34.57;16.27;;;-1.90;99.90;;;;;;4974600;28;20205;-62
2022/12/12 10:10:29;;;;;;;34.53;16.17;;;-1.90;99.90;;;;;;4978816;28;20247;-62
2022/12/12 10:12:59;;;;;;;35.57;15.97;;;-1.70;99.90;;;;;;4943794;28;20214;-62
2022/12/12 10:15:32;;;;;;;41.83;15.83;;;-1.80;99.90;;;;;;4995760;28;20198;-62
2022/12/12 10:18:03;;;;;;;31.73;15.80;;;-1.70;99.90;;;;;;4978308;28;20230;-62
2022/12/12 10:20:32;;;;;;;39.57;16.47;;;-1.70;99.90;;;;;;4996243;28;20708;-62
2022/12/12 10:23:04;;;;;;;43.83;21.57;;;-1.70;99.90;;;;;;4986429;28;20230;-62
2022/12/12 10:25:40;;;;;;;84.73;30.43;;;-1.70;99.90;;;;;;4983838;28;20206;-62
2022/12/12 10:28:12;;;;;;;79.50;33.37;;;-1.60;99.90;;;;;;4959778;28;20206;-62
2022/12/12 10:30:57;;;;;;;164.70;70.67;;;-1.60;99.90;;;;;;4996858;28;20759;-61
2022/12/12 10:33:32;;;;;;;146.77;56.03;;;-1.60;99.90;;;;;;4971289;28;20211;-62
2022/12/12 10:36:12;;;;;;;91.67;38.47;;;-1.50;99.90;;;;;;4996427;28;21018;-62
2022/12/12 10:38:55;;;;;;;59.83;27.53;;;-1.50;99.90;;;;;;5000249;28;20749;-62
2022/12/12 10:41:33;;;;;;;51.10;23.00;;;-1.40;99.90;;;;;;4990749;28;20222;-62
2022/12/12 10:44:05;;;;;;;43.63;20.40;;;-1.40;99.90;;;;;;4965940;28;20700;-63
2022/12/12 10:46:37;;;;;;;35.70;17.00;;;-1.40;99.90;;;;;;4985282;28;20253;-63
2022/12/12 10:49:14;;;;;;;38.37;19.47;;;-1.40;99.90;;;;;;4976120;28;24199;-62
2022/12/12 10:51:42;;;;;;;36.17;16.80;;;-1.30;99.90;;;;;;5000421;28;20222;-62
2022/12/12 10:54:16;;;;;;;28.97;15.97;;;-1.30;99.90;;;;;;4987904;28;20567;-63
2022/12/12 10:57:05;;;;;;;31.50;15.97;;;-1.20;99.90;;;;;;4987755;28;20211;-62
2022/12/12 10:59:40;;;;;;;37.30;16.00;;;-1.20;99.90;;;;;;4972150;28;20210;-62
2022/12/12 11:02:27;;;;;;;31.93;15.10;;;-1.20;99.90;;;;;;4985548;28;20233;-63
2022/12/12 11:05:05;;;;;;;26.77;14.20;;;-1.20;99.90;;;;;;4973971;28;20210;-63
2022/12/12 11:07:37;;;;;;;30.03;15.03;;;-1.10;99.90;;;;;;4990699;28;20206;-62
2022/12/12 11:10:14;;;;;;;31.23;14.77;;;-0.90;99.90;;;;;;4997403;28;20476;-62
2022/12/12 11:12:41;;;;;;;30.83;15.20;;;-1.00;99.90;;;;;;4989554;28;20216;-62
2022/12/12 11:15:16;;;;;;;26.30;14.83;;;-1.00;99.90;;;;;;4973381;28;20240;-62
2022/12/12 11:17:42;;;;;;;32.17;15.27;;;-1.00;99.90;;;;;;4987476;28;20226;-63
2022/12/12 11:20:17;;;;;;;33.47;15.07;;;-0.90;99.90;;;;;;4971000;28;20202;-62
2022/12/12 11:22:44;;;;;;;36.57;14.83;;;-0.90;99.90;;;;;;5007125;28;20211;-62
2022/12/12 11:25:24;;;;;;;35.30;15.17;;;-0.90;99.90;;;;;;4991416;28;20212;-62
2022/12/12 11:27:52;;;;;;;28.70;13.57;;;-0.80;99.90;;;;;;4991835;28;20212;-62
2022/12/12 11:30:27;;;;;;;34.57;14.50;;;-0.80;99.90;;;;;;4972343;28;20208;-62
2022/12/12 11:32:56;;;;;;;31.73;14.17;;;-0.80;99.90;;;;;;4991330;28;20226;-63
2022/12/12 11:35:25;;;;;;;28.80;14.13;;;-0.70;99.90;;;;;;4970592;28;20280;-62
2022/12/12 11:37:56;;;;;;;22.40;12.60;;;-0.70;99.90;;;;;;5002319;28;20286;-61
2022/12/12 11:40:26;;;;;;;33.63;14.60;;;-0.70;99.90;;;;;;4989569;28;20202;-62
2022/12/12 11:43:07;;;;;;;23.10;12.00;;;-0.70;99.90;;;;;;4990624;28;20208;-64
2022/12/12 11:45:35;;;;;;;23.77;12.40;;;-0.60;99.90;;;;;;4975465;28;20207;-62
2022/12/12 11:48:27;;;;;;;28.23;13.20;;;-0.60;99.90;;;;;;4991642;28;20719;-63
2022/12/12 11:50:54;;;;;;;28.07;14.10;;;-0.50;99.90;;;;;;4969477;28;20266;-62
2022/12/12 11:53:20;;;;;;;28.83;14.10;;;-0.50;99.90;;;;;;5001275;28;20230;-62
2022/12/12 11:55:57;;;;;;;28.03;14.10;;;-0.50;99.90;;;;;;4987563;28;20582;-62
2022/12/12 11:58:30;;;;;;;25.47;13.07;;;-0.50;99.90;;;;;;4981832;28;20214;-62
2022/12/12 12:01:05;;;;;;;29.20;13.23;;;-0.50;99.90;;;;;;4973201;28;20912;-62
2022/12/12 12:03:51;;;;;;;22.67;11.93;;;-0.50;99.90;;;;;;4950609;28;20236;-62
2022/12/12 12:06:33;;;;;;;26.87;11.93;;;-0.50;99.90;;;;;;4953529;28;20382;-63
2022/12/12 12:09:17;;;;;;;21.33;11.43;;;-0.50;99.90;;;;;;4964788;28;20232;-63
2022/12/12 12:11:54;;;;;;;24.97;13.13;;;-0.40;99.90;;;;;;4987296;28;20241;-62
2022/12/12 12:14:32;;;;;;;29.10;11.97;;;-0.40;99.90;;;;;;4983147;28;20692;-63
2022/12/12 12:17:06;;;;;;;24.03;12.47;;;-0.40;99.90;;;;;;4966063;28;20215;-62
2022/12/12 12:19:40;;;;;;;19.60;11.13;;;-0.40;99.90;;;;;;4989247;28;21794;-62
2022/12/12 12:22:18;;;;;;;26.50;12.37;;;-0.40;99.90;;;;;;4970101;28;20236;-62
2022/12/12 12:25:21;;;;;;;23.43;12.13;;;-0.30;99.90;;;;;;4973823;28;20697;-62
2022/12/12 12:28:00;;;;;;;24.33;11.70;;;-0.30;99.90;;;;;;4998452;28;20198;-62
2022/12/12 12:30:29;;;;;;;24.07;12.27;;;-0.30;99.90;;;;;;4979375;28;20232;-62
2022/12/12 12:33:26;;;;;;;26.27;12.23;;;-0.20;99.90;;;;;;4968884;28;21055;-62
2022/12/12 12:36:00;;;;;;;25.97;12.37;;;-0.20;99.90;;;;;;4973974;28;20992;-62
2022/12/12 12:38:42;;;;;;;26.23;12.47;;;-0.20;99.90;;;;;;4971402;28;20221;-63
2022/12/12 12:41:26;;;;;;;23.10;11.43;;;-0.20;99.90;;;;;;4968369;28;20253;-63
2022/12/12 12:44:14;;;;;;;25.63;12.73;;;-0.20;99.90;;;;;;4984883;28;20706;-62
2022/12/12 12:46:49;;;;;;;24.70;11.57;;;-0.20;99.90;;;;;;4957582;28;20526;-62
2022/12/12 12:49:23;;;;;;;26.10;12.53;;;-0.20;99.90;;;;;;4992081;28;20225;-62
2022/12/12 12:51:56;;;;;;;26.83;12.87;;;-0.20;99.90;;;;;;4978319;28;20235;-62
2022/12/12 12:54:27;;;;;;;29.43;12.97;;;-0.20;99.90;;;;;;4995154;28;20219;-62
2022/12/12 12:59:27;;;;;;;24.37;12.73;;;-0.20;99.90;;;;;;5023586;22;20607;-62
2022/12/12 13:01:55;;;;;;;21.73;11.93;;;-0.10;99.90;;;;;;4986704;28;20258;-64
2022/12/12 13:04:26;;;;;;;25.63;12.77;;;0.00;99.90;;;;;;5013573;28;20219;-62